PWSweather.com
Personal Weather Stations
Station Observations
KOHAVON11
Long Road Station, Avon, OH 44011

Long Road StationAvon, OH 44011

Lat: 41.437, Lon: -82.0477

Elevation: 686

Station Type: Davis Vantage Pro2

http://www.avon-weather.com

High Low Average
Temperature 55.0°F12.8°C 43.6°F6.4°C 47.4°F8.6°C
Dew Point 42.4°F5.8°C 25.5°F-3.6°C 34.8°F1.6°C
Winds 14.0 mph 22.5 kmh Calm Calm 5.0 mph W8.0 kmh W
Wind Gusts 19.0 mph30.6 kmh 6.0 mph9.7 kmh 13.0 mph20.9 kmh
Humidity 71% 49% 62%
Pressure 30.40 in1029.5 mb 30.00 in1015.9 mb -
Precipitation 0.00 in0.0 mm - -
Hour Temp Dew Point Humidity Winds Wind Gusts Pressure Precip Precip Rate Daily Precip Total
12:02 AM 45.5°F7.5°C 33.8°F1.0°C 64% 5.0 mph SW8.0 kmh SW 11.0 mph17.7 kmh 30.05 in1017.6 mb 0.00 in0.0 mm 0.00 in0.0 mm 0.00 in0.0 mm
12:07 AM 45.5°F7.5°C 33.8°F1.0°C 64% 3.0 mph WSW4.8 kmh WSW 11.0 mph17.7 kmh 30.05 in1017.6 mb 0.00 in0.0 mm 0.00 in0.0 mm 0.00 in0.0 mm
12:12 AM 45.4°F7.4°C 33.7°F0.9°C 64% 9.0 mph SSW14.5 kmh SSW 10.0 mph16.1 kmh 30.05 in1017.6 mb 0.00 in0.0 mm 0.00 in0.0 mm 0.00 in0.0 mm
12:17 AM 45.4°F7.4°C 33.7°F0.9°C 64% 7.0 mph WSW11.3 kmh WSW 10.0 mph16.1 kmh 30.06 in1017.9 mb 0.00 in0.0 mm 0.00 in0.0 mm 0.00 in0.0 mm
12:22 AM 45.3°F7.4°C 33.6°F0.9°C 64% 4.0 mph WSW6.4 kmh WSW 9.0 mph14.5 kmh 30.05 in1017.6 mb 0.00 in0.0 mm 0.00 in0.0 mm 0.00 in0.0 mm
12:27 AM 45.3°F7.4°C 34.0°F1.1°C 65% 4.0 mph SW6.4 kmh SW 12.0 mph19.3 kmh 30.05 in1017.6 mb 0.00 in0.0 mm 0.00 in0.0 mm 0.00 in0.0 mm
12:32 AM 45.3°F7.4°C 34.0°F1.1°C 65% 8.0 mph SW12.9 kmh SW 12.0 mph19.3 kmh 30.05 in1017.6 mb 0.00 in0.0 mm 0.00 in0.0 mm 0.00 in0.0 mm
12:37 AM 45.2°F7.3°C 33.9°F1.1°C 65% 4.0 mph WSW6.4 kmh WSW 12.0 mph19.3 kmh 30.05 in1017.6 mb 0.00 in0.0 mm 0.00 in0.0 mm 0.00 in0.0 mm
12:42 AM 45.2°F7.3°C 33.9°F1.1°C 65% 3.0 mph SW4.8 kmh SW 12.0 mph19.3 kmh 30.05 in1017.6 mb 0.00 in0.0 mm 0.00 in0.0 mm 0.00 in0.0 mm
12:47 AM 45.2°F7.3°C 33.9°F1.1°C 65% 4.0 mph WSW6.4 kmh WSW 11.0 mph17.7 kmh 30.05 in1017.6 mb 0.00 in0.0 mm 0.00 in0.0 mm 0.00 in0.0 mm
12:52 AM 45.2°F7.3°C 33.9°F1.1°C 65% 5.0 mph SW8.0 kmh SW 11.0 mph17.7 kmh 30.04 in1017.3 mb 0.00 in0.0 mm 0.00 in0.0 mm 0.00 in0.0 mm
12:57 AM 45.2°F7.3°C 33.9°F1.1°C 65% 4.0 mph SSW6.4 kmh SSW 10.0 mph16.1 kmh 30.04 in1017.3 mb 0.00 in0.0 mm 0.00 in0.0 mm 0.00 in0.0 mm
01:02 AM 45.2°F7.3°C 33.9°F1.1°C 65% 3.0 mph WSW4.8 kmh WSW 10.0 mph16.1 kmh 30.04 in1017.3 mb 0.00 in0.0 mm 0.00 in0.0 mm 0.00 in0.0 mm
01:07 AM 45.1°F7.3°C 33.8°F1.0°C 65% 4.0 mph SW6.4 kmh SW 10.0 mph16.1 kmh 30.04 in1017.3 mb 0.00 in0.0 mm 0.00 in0.0 mm 0.00 in0.0 mm
01:12 AM 45.1°F7.3°C 33.8°F1.0°C 65% 4.0 mph SW6.4 kmh SW 10.0 mph16.1 kmh 30.04 in1017.3 mb 0.00 in0.0 mm 0.00 in0.0 mm 0.00 in0.0 mm
01:17 AM 45.1°F7.3°C 33.8°F1.0°C 65% 4.0 mph SW6.4 kmh SW 9.0 mph14.5 kmh 30.04 in1017.3 mb 0.00 in0.0 mm 0.00 in0.0 mm 0.00 in0.0 mm
01:22 AM 45.1°F7.3°C 33.8°F1.0°C 65% 3.0 mph WSW4.8 kmh WSW 12.0 mph19.3 kmh 30.04 in1017.3 mb 0.00 in0.0 mm 0.00 in0.0 mm 0.00 in0.0 mm
01:27 AM 45.0°F7.2°C 33.7°F0.9°C 65% 5.0 mph WSW8.0 kmh WSW 12.0 mph19.3 kmh 30.04 in1017.3 mb 0.00 in0.0 mm 0.00 in0.0 mm 0.00 in0.0 mm
01:32 AM 45.2°F7.3°C 33.9°F1.1°C 65% 5.0 mph SW8.0 kmh SW 12.0 mph19.3 kmh 30.04 in1017.3 mb 0.00 in0.0 mm 0.00 in0.0 mm 0.00 in0.0 mm
01:37 AM 45.3°F7.4°C 34.0°F1.1°C 65% 5.0 mph WSW8.0 kmh WSW 15.0 mph24.1 kmh 30.04 in1017.3 mb 0.00 in0.0 mm 0.00 in0.0 mm 0.00 in0.0 mm
01:42 AM 45.4°F7.4°C 33.7°F0.9°C 64% 4.0 mph WSW6.4 kmh WSW 15.0 mph24.1 kmh 30.04 in1017.3 mb 0.00 in0.0 mm 0.00 in0.0 mm 0.00 in0.0 mm
01:47 AM 45.5°F7.5°C 34.2°F1.2°C 65% 6.0 mph SW9.7 kmh SW 15.0 mph24.1 kmh 30.04 in1017.3 mb 0.00 in0.0 mm 0.00 in0.0 mm 0.00 in0.0 mm
01:52 AM 45.7°F7.6°C 34.0°F1.1°C 64% 4.0 mph SW6.4 kmh SW 18.0 mph29.0 kmh 30.04 in1017.3 mb 0.00 in0.0 mm 0.00 in0.0 mm 0.00 in0.0 mm
01:57 AM 45.8°F7.7°C 34.1°F1.2°C 64% 5.0 mph WSW8.0 kmh WSW 18.0 mph29.0 kmh 30.04 in1017.3 mb 0.00 in0.0 mm 0.00 in0.0 mm 0.00 in0.0 mm
02:02 AM 45.9°F7.7°C 34.2°F1.2°C 64% 5.0 mph WSW8.0 kmh WSW 18.0 mph29.0 kmh 30.03 in1016.9 mb 0.00 in0.0 mm 0.00 in0.0 mm 0.00 in0.0 mm
02:07 AM 45.9°F7.7°C 34.2°F1.2°C 64% 5.0 mph WSW8.0 kmh WSW 18.0 mph29.0 kmh 30.03 in1016.9 mb 0.00 in0.0 mm 0.00 in0.0 mm 0.00 in0.0 mm
02:12 AM 45.9°F7.7°C 34.2°F1.2°C 64% 5.0 mph SW8.0 kmh SW 11.0 mph17.7 kmh 30.03 in1016.9 mb 0.00 in0.0 mm 0.00 in0.0 mm 0.00 in0.0 mm
02:17 AM 46.0°F7.8°C 34.3°F1.3°C 64% 4.0 mph WSW6.4 kmh WSW 11.0 mph17.7 kmh 30.03 in1016.9 mb 0.00 in0.0 mm 0.00 in0.0 mm 0.00 in0.0 mm
02:22 AM 46.0°F7.8°C 34.3°F1.3°C 64% 4.0 mph SW6.4 kmh SW 11.0 mph17.7 kmh 30.02 in1016.6 mb 0.00 in0.0 mm 0.00 in0.0 mm 0.00 in0.0 mm
02:27 AM 46.0°F7.8°C 34.3°F1.3°C 64% 5.0 mph SW8.0 kmh SW 11.0 mph17.7 kmh 30.03 in1016.9 mb 0.00 in0.0 mm 0.00 in0.0 mm 0.00 in0.0 mm
02:32 AM 46.1°F7.8°C 34.4°F1.3°C 64% 5.0 mph WSW8.0 kmh WSW 9.0 mph14.5 kmh 30.02 in1016.6 mb 0.00 in0.0 mm 0.00 in0.0 mm 0.00 in0.0 mm
02:37 AM 46.1°F7.8°C 34.4°F1.3°C 64% 8.0 mph SW12.9 kmh SW 11.0 mph17.7 kmh 30.02 in1016.6 mb 0.00 in0.0 mm 0.00 in0.0 mm 0.00 in0.0 mm
02:42 AM 46.2°F7.9°C 34.1°F1.2°C 63% 7.0 mph WSW11.3 kmh WSW 13.0 mph20.9 kmh 30.02 in1016.6 mb 0.00 in0.0 mm 0.00 in0.0 mm 0.00 in0.0 mm
02:47 AM 46.3°F7.9°C 34.2°F1.2°C 63% 4.0 mph WSW6.4 kmh WSW 15.0 mph24.1 kmh 30.02 in1016.6 mb 0.00 in0.0 mm 0.00 in0.0 mm 0.00 in0.0 mm
02:52 AM 46.4°F8.0°C 34.3°F1.3°C 63% 4.0 mph W6.4 kmh W 15.0 mph24.1 kmh 30.02 in1016.6 mb 0.00 in0.0 mm 0.00 in0.0 mm 0.00 in0.0 mm
02:57 AM 46.6°F8.1°C 34.4°F1.3°C 63% 5.0 mph W8.0 kmh W 16.0 mph25.7 kmh 30.02 in1016.6 mb 0.00 in0.0 mm 0.00 in0.0 mm 0.00 in0.0 mm
03:02 AM 46.7°F8.2°C 34.5°F1.4°C 63% 4.0 mph WSW6.4 kmh WSW 16.0 mph25.7 kmh 30.02 in1016.6 mb 0.00 in0.0 mm 0.00 in0.0 mm 0.00 in0.0 mm
03:07 AM 46.7°F8.2°C 34.1°F1.2°C 62% 13.0 mph WSW20.9 kmh WSW 16.0 mph25.7 kmh 30.02 in1016.6 mb 0.00 in0.0 mm 0.00 in0.0 mm 0.00 in0.0 mm
03:12 AM 46.8°F8.2°C 34.2°F1.2°C 62% 6.0 mph SW9.7 kmh SW 16.0 mph25.7 kmh 30.02 in1016.6 mb 0.00 in0.0 mm 0.00 in0.0 mm 0.00 in0.0 mm
03:17 AM 46.8°F8.2°C 34.2°F1.2°C 62% 5.0 mph WSW8.0 kmh WSW 13.0 mph20.9 kmh 30.02 in1016.6 mb 0.00 in0.0 mm 0.00 in0.0 mm 0.00 in0.0 mm
03:22 AM 46.7°F8.2°C 34.1°F1.2°C 62% 3.0 mph WSW4.8 kmh WSW 13.0 mph20.9 kmh 30.02 in1016.6 mb 0.00 in0.0 mm 0.00 in0.0 mm 0.00 in0.0 mm
03:27 AM 46.6°F8.1°C 34.4°F1.3°C 63% 5.0 mph WSW8.0 kmh WSW 9.0 mph14.5 kmh 30.02 in1016.6 mb 0.00 in0.0 mm 0.00 in0.0 mm 0.00 in0.0 mm
03:32 AM 46.5°F8.1°C 34.4°F1.3°C 63% 4.0 mph WSW6.4 kmh WSW 10.0 mph16.1 kmh 30.02 in1016.6 mb 0.00 in0.0 mm 0.00 in0.0 mm 0.00 in0.0 mm
03:37 AM 46.4°F8.0°C 34.3°F1.3°C 63% 5.0 mph WSW8.0 kmh WSW 10.0 mph16.1 kmh 30.02 in1016.6 mb 0.00 in0.0 mm 0.00 in0.0 mm 0.00 in0.0 mm
03:42 AM 46.3°F7.9°C 34.2°F1.2°C 63% 5.0 mph W8.0 kmh W 10.0 mph16.1 kmh 30.01 in1016.3 mb 0.00 in0.0 mm 0.00 in0.0 mm 0.00 in0.0 mm
03:47 AM 46.1°F7.8°C 34.4°F1.3°C 64% 5.0 mph WSW8.0 kmh WSW 10.0 mph16.1 kmh 30.01 in1016.3 mb 0.00 in0.0 mm 0.00 in0.0 mm 0.00 in0.0 mm
03:52 AM 46.0°F7.8°C 34.3°F1.3°C 64% 5.0 mph WSW8.0 kmh WSW 8.0 mph12.9 kmh 30.01 in1016.3 mb 0.00 in0.0 mm 0.00 in0.0 mm 0.00 in0.0 mm
03:57 AM 45.8°F7.7°C 34.1°F1.2°C 64% 4.0 mph WSW6.4 kmh WSW 8.0 mph12.9 kmh 30.00 in1015.9 mb 0.00 in0.0 mm 0.00 in0.0 mm 0.00 in0.0 mm
04:02 AM 45.7°F7.6°C 34.0°F1.1°C 64% 4.0 mph WSW6.4 kmh WSW 8.0 mph12.9 kmh 30.00 in1015.9 mb 0.00 in0.0 mm 0.00 in0.0 mm 0.00 in0.0 mm
04:07 AM 45.5°F7.5°C 34.2°F1.2°C 65% 6.0 mph WSW9.7 kmh WSW 8.0 mph12.9 kmh 30.00 in1015.9 mb 0.00 in0.0 mm 0.00 in0.0 mm 0.00 in0.0 mm
04:12 AM 45.4°F7.4°C 34.1°F1.2°C 65% 5.0 mph SW8.0 kmh SW 9.0 mph14.5 kmh 30.00 in1015.9 mb 0.00 in0.0 mm 0.00 in0.0 mm 0.00 in0.0 mm
04:17 AM 45.2°F7.3°C 33.9°F1.1°C 65% 6.0 mph SW9.7 kmh SW 9.0 mph14.5 kmh 30.00 in1015.9 mb 0.00 in0.0 mm 0.00 in0.0 mm 0.00 in0.0 mm
04:22 AM 45.1°F7.3°C 34.2°F1.2°C 66% 4.0 mph WSW6.4 kmh WSW 9.0 mph14.5 kmh 30.00 in1015.9 mb 0.00 in0.0 mm 0.00 in0.0 mm 0.00 in0.0 mm
04:27 AM 45.0°F7.2°C 34.1°F1.2°C 66% 3.0 mph WSW4.8 kmh WSW 9.0 mph14.5 kmh 30.00 in1015.9 mb 0.00 in0.0 mm 0.00 in0.0 mm 0.00 in0.0 mm
04:32 AM 44.9°F7.2°C 34.0°F1.1°C 66% 5.0 mph WSW8.0 kmh WSW 8.0 mph12.9 kmh 30.00 in1015.9 mb 0.00 in0.0 mm 0.00 in0.0 mm 0.00 in0.0 mm
04:37 AM 44.8°F7.1°C 33.9°F1.1°C 66% 9.0 mph WSW14.5 kmh WSW 9.0 mph14.5 kmh 30.00 in1015.9 mb 0.00 in0.0 mm 0.00 in0.0 mm 0.00 in0.0 mm
04:42 AM 44.7°F7.1°C 34.2°F1.2°C 67% 3.0 mph WSW4.8 kmh WSW 9.0 mph14.5 kmh 30.00 in1015.9 mb 0.00 in0.0 mm 0.00 in0.0 mm 0.00 in0.0 mm
04:47 AM 44.6°F7.0°C 34.1°F1.2°C 67% 2.0 mph SW3.2 kmh SW 9.0 mph14.5 kmh 30.00 in1015.9 mb 0.00 in0.0 mm 0.00 in0.0 mm 0.00 in0.0 mm
04:52 AM 44.6°F7.0°C 34.1°F1.2°C 67% 3.0 mph WSW4.8 kmh WSW 9.0 mph14.5 kmh 30.00 in1015.9 mb 0.00 in0.0 mm 0.00 in0.0 mm 0.00 in0.0 mm
04:57 AM 44.5°F6.9°C 34.0°F1.1°C 67% 5.0 mph SW8.0 kmh SW 9.0 mph14.5 kmh 30.00 in1015.9 mb 0.00 in0.0 mm 0.00 in0.0 mm 0.00 in0.0 mm
05:02 AM 44.4°F6.9°C 34.0°F1.1°C 67% 3.0 mph WSW4.8 kmh WSW 7.0 mph11.3 kmh 30.00 in1015.9 mb 0.00 in0.0 mm 0.00 in0.0 mm 0.00 in0.0 mm
05:07 AM 44.3°F6.8°C 33.9°F1.1°C 67% 5.0 mph WSW8.0 kmh WSW 7.0 mph11.3 kmh 30.00 in1015.9 mb 0.00 in0.0 mm 0.00 in0.0 mm 0.00 in0.0 mm
05:12 AM 44.3°F6.8°C 33.9°F1.1°C 67% 2.0 mph SSW3.2 kmh SSW 6.0 mph9.7 kmh 30.00 in1015.9 mb 0.00 in0.0 mm 0.00 in0.0 mm 0.00 in0.0 mm
05:17 AM 44.2°F6.8°C 34.1°F1.2°C 68% 5.0 mph WSW8.0 kmh WSW 7.0 mph11.3 kmh 30.00 in1015.9 mb 0.00 in0.0 mm 0.00 in0.0 mm 0.00 in0.0 mm
05:22 AM 44.1°F6.7°C 34.0°F1.1°C 68% 2.0 mph SW3.2 kmh SW 8.0 mph12.9 kmh 30.00 in1015.9 mb 0.00 in0.0 mm 0.00 in0.0 mm 0.00 in0.0 mm
05:27 AM 44.1°F6.7°C 34.0°F1.1°C 68% 3.0 mph SW4.8 kmh SW 8.0 mph12.9 kmh 30.00 in1015.9 mb 0.00 in0.0 mm 0.00 in0.0 mm 0.00 in0.0 mm
05:32 AM 44.1°F6.7°C 34.0°F1.1°C 68% 6.0 mph WSW9.7 kmh WSW 10.0 mph16.1 kmh 30.00 in1015.9 mb 0.00 in0.0 mm 0.00 in0.0 mm 0.00 in0.0 mm
05:37 AM 44.0°F6.7°C 34.0°F1.1°C 68% 6.0 mph WSW9.7 kmh WSW 10.0 mph16.1 kmh 30.01 in1016.3 mb 0.00 in0.0 mm 0.00 in0.0 mm 0.00 in0.0 mm
05:42 AM 43.9°F6.6°C 33.9°F1.1°C 68% 3.0 mph WSW4.8 kmh WSW 10.0 mph16.1 kmh 30.01 in1016.3 mb 0.00 in0.0 mm 0.00 in0.0 mm 0.00 in0.0 mm
05:47 AM 43.9°F6.6°C 33.9°F1.1°C 68% 7.0 mph WSW11.3 kmh WSW 10.0 mph16.1 kmh 30.01 in1016.3 mb 0.00 in0.0 mm 0.00 in0.0 mm 0.00 in0.0 mm
05:52 AM 43.9°F6.6°C 33.9°F1.1°C 68% 8.0 mph S12.9 kmh S 9.0 mph14.5 kmh 30.01 in1016.3 mb 0.00 in0.0 mm 0.00 in0.0 mm 0.00 in0.0 mm
05:57 AM 43.9°F6.6°C 33.9°F1.1°C 68% 4.0 mph WSW6.4 kmh WSW 9.0 mph14.5 kmh 30.01 in1016.3 mb 0.00 in0.0 mm 0.00 in0.0 mm 0.00 in0.0 mm
06:02 AM 44.0°F6.7°C 34.3°F1.3°C 69% 4.0 mph WSW6.4 kmh WSW 9.0 mph14.5 kmh 30.01 in1016.3 mb 0.00 in0.0 mm 0.00 in0.0 mm 0.00 in0.0 mm
06:07 AM 44.0°F6.7°C 34.3°F1.3°C 69% 4.0 mph WSW6.4 kmh WSW 9.0 mph14.5 kmh 30.01 in1016.3 mb 0.00 in0.0 mm 0.00 in0.0 mm 0.00 in0.0 mm
06:12 AM 43.9°F6.6°C 34.2°F1.2°C 69% 10.0 mph NW16.1 kmh NW 12.0 mph19.3 kmh 30.01 in1016.3 mb 0.00 in0.0 mm 0.00 in0.0 mm 0.00 in0.0 mm
06:17 AM 43.9°F6.6°C 34.2°F1.2°C 69% 6.0 mph WSW9.7 kmh WSW 12.0 mph19.3 kmh 30.01 in1016.3 mb 0.00 in0.0 mm 0.00 in0.0 mm 0.00 in0.0 mm
06:22 AM 43.8°F6.6°C 34.1°F1.2°C 69% 5.0 mph S8.0 kmh S 12.0 mph19.3 kmh 30.01 in1016.3 mb 0.00 in0.0 mm 0.00 in0.0 mm 0.00 in0.0 mm
06:27 AM 43.7°F6.5°C 34.0°F1.1°C 69% 6.0 mph W9.7 kmh W 12.0 mph19.3 kmh 30.01 in1016.3 mb 0.00 in0.0 mm 0.00 in0.0 mm 0.00 in0.0 mm
06:32 AM 43.7°F6.5°C 34.0°F1.1°C 69% 3.0 mph WSW4.8 kmh WSW 12.0 mph19.3 kmh 30.01 in1016.3 mb 0.00 in0.0 mm 0.00 in0.0 mm 0.00 in0.0 mm
06:37 AM 43.6°F6.4°C 33.9°F1.1°C 69% 2.0 mph WSW3.2 kmh WSW 7.0 mph11.3 kmh 30.01 in1016.3 mb 0.00 in0.0 mm 0.00 in0.0 mm 0.00 in0.0 mm
06:42 AM 43.6°F6.4°C 34.3°F1.3°C 70% 9.0 mph WSW14.5 kmh WSW 11.0 mph17.7 kmh 30.01 in1016.3 mb 0.00 in0.0 mm 0.00 in0.0 mm 0.00 in0.0 mm
06:47 AM 43.7°F6.5°C 34.4°F1.3°C 70% 4.0 mph WSW6.4 kmh WSW 15.0 mph24.1 kmh 30.01 in1016.3 mb 0.00 in0.0 mm 0.00 in0.0 mm 0.00 in0.0 mm
06:52 AM 43.8°F6.6°C 34.5°F1.4°C 70% 4.0 mph WSW6.4 kmh WSW 15.0 mph24.1 kmh 30.01 in1016.3 mb 0.00 in0.0 mm 0.00 in0.0 mm 0.00 in0.0 mm
06:57 AM 43.9°F6.6°C 34.6°F1.4°C 70% 4.0 mph WSW6.4 kmh WSW 15.0 mph24.1 kmh 30.01 in1016.3 mb 0.00 in0.0 mm 0.00 in0.0 mm 0.00 in0.0 mm
07:02 AM 44.0°F6.7°C 34.7°F1.5°C 70% 3.0 mph W4.8 kmh W 15.0 mph24.1 kmh 30.01 in1016.3 mb 0.00 in0.0 mm 0.00 in0.0 mm 0.00 in0.0 mm
07:07 AM 44.0°F6.7°C 34.7°F1.5°C 70% 7.0 mph WSW11.3 kmh WSW 12.0 mph19.3 kmh 30.01 in1016.3 mb 0.00 in0.0 mm 0.00 in0.0 mm 0.00 in0.0 mm
07:12 AM 44.1°F6.7°C 34.8°F1.6°C 70% 6.0 mph WSW9.7 kmh WSW 12.0 mph19.3 kmh 30.01 in1016.3 mb 0.00 in0.0 mm 0.00 in0.0 mm 0.00 in0.0 mm
07:17 AM 44.2°F6.8°C 34.9°F1.6°C 70% 5.0 mph WSW8.0 kmh WSW 13.0 mph20.9 kmh 30.01 in1016.3 mb 0.00 in0.0 mm 0.00 in0.0 mm 0.00 in0.0 mm
07:22 AM 44.3°F6.8°C 35.0°F1.7°C 70% 7.0 mph SW11.3 kmh SW 13.0 mph20.9 kmh 30.01 in1016.3 mb 0.00 in0.0 mm 0.00 in0.0 mm 0.00 in0.0 mm
07:27 AM 44.3°F6.8°C 35.0°F1.7°C 70% 7.0 mph W11.3 kmh W 13.0 mph20.9 kmh 30.01 in1016.3 mb 0.00 in0.0 mm 0.00 in0.0 mm 0.00 in0.0 mm
07:32 AM 44.4°F6.9°C 35.1°F1.7°C 70% 7.0 mph WSW11.3 kmh WSW 13.0 mph20.9 kmh 30.02 in1016.6 mb 0.00 in0.0 mm 0.00 in0.0 mm 0.00 in0.0 mm
07:37 AM 44.4°F6.9°C 35.1°F1.7°C 70% 3.0 mph W4.8 kmh W 10.0 mph16.1 kmh 30.02 in1016.6 mb 0.00 in0.0 mm 0.00 in0.0 mm 0.00 in0.0 mm
07:42 AM 44.5°F6.9°C 35.2°F1.8°C 70% 4.0 mph W6.4 kmh W 10.0 mph16.1 kmh 30.02 in1016.6 mb 0.00 in0.0 mm 0.00 in0.0 mm 0.00 in0.0 mm
07:47 AM 44.4°F6.9°C 35.1°F1.7°C 70% 13.0 mph W20.9 kmh W 13.0 mph20.9 kmh 30.02 in1016.6 mb 0.00 in0.0 mm 0.00 in0.0 mm 0.00 in0.0 mm
07:52 AM 44.4°F6.9°C 35.1°F1.7°C 70% 4.0 mph WSW6.4 kmh WSW 13.0 mph20.9 kmh 30.02 in1016.6 mb 0.00 in0.0 mm 0.00 in0.0 mm 0.00 in0.0 mm
07:57 AM 44.3°F6.8°C 35.0°F1.7°C 70% 3.0 mph WSW4.8 kmh WSW 13.0 mph20.9 kmh 30.02 in1016.6 mb 0.00 in0.0 mm 0.00 in0.0 mm 0.00 in0.0 mm
08:02 AM 44.3°F6.8°C 35.0°F1.7°C 70% 9.0 mph SW14.5 kmh SW 13.0 mph20.9 kmh 30.02 in1016.6 mb 0.00 in0.0 mm 0.00 in0.0 mm 0.00 in0.0 mm
08:07 AM 44.4°F6.9°C 35.1°F1.7°C 70% 5.0 mph W8.0 kmh W 13.0 mph20.9 kmh 30.02 in1016.6 mb 0.00 in0.0 mm 0.00 in0.0 mm 0.00 in0.0 mm
08:12 AM 44.5°F6.9°C 35.5°F1.9°C 71% 4.0 mph WSW6.4 kmh WSW 12.0 mph19.3 kmh 30.03 in1016.9 mb 0.00 in0.0 mm 0.00 in0.0 mm 0.00 in0.0 mm
08:17 AM 44.7°F7.1°C 35.7°F2.1°C 71% 4.0 mph WSW6.4 kmh WSW 12.0 mph19.3 kmh 30.03 in1016.9 mb 0.00 in0.0 mm 0.00 in0.0 mm 0.00 in0.0 mm
08:22 AM 44.9°F7.2°C 35.6°F2.0°C 70% 4.0 mph W6.4 kmh W 14.0 mph22.5 kmh 30.03 in1016.9 mb 0.00 in0.0 mm 0.00 in0.0 mm 0.00 in0.0 mm
08:27 AM 44.9°F7.2°C 35.6°F2.0°C 70% 7.0 mph WSW11.3 kmh WSW 14.0 mph22.5 kmh 30.04 in1017.3 mb 0.00 in0.0 mm 0.00 in0.0 mm 0.00 in0.0 mm
08:32 AM 45.0°F7.2°C 35.7°F2.1°C 70% 7.0 mph WSW11.3 kmh WSW 14.0 mph22.5 kmh 30.04 in1017.3 mb 0.00 in0.0 mm 0.00 in0.0 mm 0.00 in0.0 mm
08:37 AM 45.0°F7.2°C 35.7°F2.1°C 70% 6.0 mph WSW9.7 kmh WSW 14.0 mph22.5 kmh 30.03 in1016.9 mb 0.00 in0.0 mm 0.00 in0.0 mm 0.00 in0.0 mm
08:42 AM 45.1°F7.3°C 35.8°F2.1°C 70% 5.0 mph WSW8.0 kmh WSW 11.0 mph17.7 kmh 30.04 in1017.3 mb 0.00 in0.0 mm 0.00 in0.0 mm 0.00 in0.0 mm
08:47 AM 45.3°F7.4°C 35.9°F2.2°C 70% 4.0 mph WSW6.4 kmh WSW 11.0 mph17.7 kmh 30.04 in1017.3 mb 0.00 in0.0 mm 0.00 in0.0 mm 0.00 in0.0 mm
08:52 AM 45.6°F7.6°C 36.2°F2.3°C 70% 4.0 mph WSW6.4 kmh WSW 11.0 mph17.7 kmh 30.04 in1017.3 mb 0.00 in0.0 mm 0.00 in0.0 mm 0.00 in0.0 mm
08:57 AM 45.7°F7.6°C 36.0°F2.2°C 69% 12.0 mph W19.3 kmh W 12.0 mph19.3 kmh 30.04 in1017.3 mb 0.00 in0.0 mm 0.00 in0.0 mm 0.00 in0.0 mm
09:02 AM 45.6°F7.6°C 36.2°F2.3°C 70% 3.0 mph W4.8 kmh W 12.0 mph19.3 kmh 30.04 in1017.3 mb 0.00 in0.0 mm 0.00 in0.0 mm 0.00 in0.0 mm
09:07 AM 45.9°F7.7°C 36.5°F2.5°C 70% 7.0 mph WSW11.3 kmh WSW 14.0 mph22.5 kmh 30.04 in1017.3 mb 0.00 in0.0 mm 0.00 in0.0 mm 0.00 in0.0 mm
09:12 AM 46.3°F7.9°C 36.5°F2.5°C 69% 5.0 mph WSW8.0 kmh WSW 14.0 mph22.5 kmh 30.05 in1017.6 mb 0.00 in0.0 mm 0.00 in0.0 mm 0.00 in0.0 mm
09:17 AM 46.8°F8.2°C 37.0°F2.8°C 69% 4.0 mph W6.4 kmh W 14.0 mph22.5 kmh 30.05 in1017.6 mb 0.00 in0.0 mm 0.00 in0.0 mm 0.00 in0.0 mm
09:22 AM 47.1°F8.4°C 36.9°F2.7°C 68% 6.0 mph WSW9.7 kmh WSW 14.0 mph22.5 kmh 30.05 in1017.6 mb 0.00 in0.0 mm 0.00 in0.0 mm 0.00 in0.0 mm
09:27 AM 47.3°F8.5°C 37.1°F2.8°C 68% 3.0 mph W4.8 kmh W 11.0 mph17.7 kmh 30.05 in1017.6 mb 0.00 in0.0 mm 0.00 in0.0 mm 0.00 in0.0 mm
09:32 AM 47.7°F8.7°C 37.1°F2.8°C 67% 5.0 mph W8.0 kmh W 13.0 mph20.9 kmh 30.06 in1017.9 mb 0.00 in0.0 mm 0.00 in0.0 mm 0.00 in0.0 mm
09:37 AM 48.0°F8.9°C 37.4°F3.0°C 67% 6.0 mph W9.7 kmh W 13.0 mph20.9 kmh 30.06 in1017.9 mb 0.00 in0.0 mm 0.00 in0.0 mm 0.00 in0.0 mm
09:42 AM 48.9°F9.4°C 38.2°F3.4°C 67% 3.0 mph WSW4.8 kmh WSW 13.0 mph20.9 kmh 30.06 in1017.9 mb 0.00 in0.0 mm 0.00 in0.0 mm 0.00 in0.0 mm
09:47 AM 48.9°F9.4°C 37.8°F3.2°C 66% 8.0 mph W12.9 kmh W 13.0 mph20.9 kmh 30.07 in1018.3 mb 0.00 in0.0 mm 0.00 in0.0 mm 0.00 in0.0 mm
09:52 AM 48.6°F9.2°C 37.9°F3.3°C 67% 5.0 mph WSW8.0 kmh WSW 13.0 mph20.9 kmh 30.07 in1018.3 mb 0.00 in0.0 mm 0.00 in0.0 mm 0.00 in0.0 mm
09:57 AM 48.2°F9.0°C 37.6°F3.1°C 67% 3.0 mph W4.8 kmh W 13.0 mph20.9 kmh 30.07 in1018.3 mb 0.00 in0.0 mm 0.00 in0.0 mm 0.00 in0.0 mm
10:02 AM 48.2°F9.0°C 37.6°F3.1°C 67% 7.0 mph WNW11.3 kmh WNW 13.0 mph20.9 kmh 30.07 in1018.3 mb 0.00 in0.0 mm 0.00 in0.0 mm 0.00 in0.0 mm
10:07 AM 49.0°F9.4°C 38.7°F3.7°C 68% 6.0 mph WSW9.7 kmh WSW 13.0 mph20.9 kmh 30.07 in1018.3 mb 0.00 in0.0 mm 0.00 in0.0 mm 0.00 in0.0 mm
10:12 AM 49.6°F9.8°C 38.9°F3.8°C 67% 6.0 mph W9.7 kmh W 12.0 mph19.3 kmh 30.07 in1018.3 mb 0.00 in0.0 mm 0.00 in0.0 mm 0.00 in0.0 mm
10:17 AM 49.8°F9.9°C 38.7°F3.7°C 66% 6.0 mph W9.7 kmh W 15.0 mph24.1 kmh 30.08 in1018.6 mb 0.00 in0.0 mm 0.00 in0.0 mm 0.00 in0.0 mm
10:22 AM 49.7°F9.8°C 38.6°F3.7°C 66% 8.0 mph W12.9 kmh W 19.0 mph30.6 kmh 30.08 in1018.6 mb 0.00 in0.0 mm 0.00 in0.0 mm 0.00 in0.0 mm
10:27 AM 49.9°F9.9°C 38.8°F3.8°C 66% 7.0 mph WSW11.3 kmh WSW 19.0 mph30.6 kmh 30.08 in1018.6 mb 0.00 in0.0 mm 0.00 in0.0 mm 0.00 in0.0 mm
10:32 AM 50.4°F10.2°C 39.3°F4.1°C 66% 4.0 mph W6.4 kmh W 19.0 mph30.6 kmh 30.08 in1018.6 mb 0.00 in0.0 mm 0.00 in0.0 mm 0.00 in0.0 mm
10:37 AM 50.8°F10.4°C 39.6°F4.2°C 66% 4.0 mph WNW6.4 kmh WNW 19.0 mph30.6 kmh 30.08 in1018.6 mb 0.00 in0.0 mm 0.00 in0.0 mm 0.00 in0.0 mm
10:42 AM 51.1°F10.6°C 39.5°F4.2°C 65% 4.0 mph NW6.4 kmh NW 12.0 mph19.3 kmh 30.08 in1018.6 mb 0.00 in0.0 mm 0.00 in0.0 mm 0.00 in0.0 mm
10:47 AM 50.7°F10.4°C 39.1°F3.9°C 65% 3.0 mph WSW4.8 kmh WSW 13.0 mph20.9 kmh 30.08 in1018.6 mb 0.00 in0.0 mm 0.00 in0.0 mm 0.00 in0.0 mm
10:52 AM 50.7°F10.4°C 39.1°F3.9°C 65% 4.0 mph W6.4 kmh W 13.0 mph20.9 kmh 30.09 in1019.0 mb 0.00 in0.0 mm 0.00 in0.0 mm 0.00 in0.0 mm
10:57 AM 50.8°F10.4°C 39.6°F4.2°C 66% 5.0 mph W8.0 kmh W 13.0 mph20.9 kmh 30.08 in1018.6 mb 0.00 in0.0 mm 0.00 in0.0 mm 0.00 in0.0 mm
11:02 AM 50.5°F10.3°C 38.9°F3.8°C 65% 3.0 mph W4.8 kmh W 13.0 mph20.9 kmh 30.09 in1019.0 mb 0.00 in0.0 mm 0.00 in0.0 mm 0.00 in0.0 mm
11:07 AM 50.4°F10.2°C 39.3°F4.1°C 66% 5.0 mph W8.0 kmh W 13.0 mph20.9 kmh 30.09 in1019.0 mb 0.00 in0.0 mm 0.00 in0.0 mm 0.00 in0.0 mm
11:12 AM 51.5°F10.8°C 40.3°F4.6°C 66% 4.0 mph WSW6.4 kmh WSW 13.0 mph20.9 kmh 30.09 in1019.0 mb 0.00 in0.0 mm 0.00 in0.0 mm 0.00 in0.0 mm
11:17 AM 51.8°F11.0°C 40.6°F4.8°C 66% 4.0 mph WSW6.4 kmh WSW 12.0 mph19.3 kmh 30.09 in1019.0 mb 0.00 in0.0 mm 0.00 in0.0 mm 0.00 in0.0 mm
11:22 AM 52.9°F11.6°C 41.6°F5.3°C 66% 7.0 mph WSW11.3 kmh WSW 12.0 mph19.3 kmh 30.09 in1019.0 mb 0.00 in0.0 mm 0.00 in0.0 mm 0.00 in0.0 mm
11:27 AM 53.3°F11.8°C 41.2°F5.1°C 64% 5.0 mph W8.0 kmh W 14.0 mph22.5 kmh 30.09 in1019.0 mb 0.00 in0.0 mm 0.00 in0.0 mm 0.00 in0.0 mm
11:32 AM 53.0°F11.7°C 40.5°F4.7°C 63% 6.0 mph W9.7 kmh W 14.0 mph22.5 kmh 30.09 in1019.0 mb 0.00 in0.0 mm 0.00 in0.0 mm 0.00 in0.0 mm
11:37 AM 52.6°F11.4°C 40.5°F4.7°C 64% 3.0 mph W4.8 kmh W 14.0 mph22.5 kmh 30.10 in1019.3 mb 0.00 in0.0 mm 0.00 in0.0 mm 0.00 in0.0 mm
11:42 AM 52.5°F11.4°C 40.8°F4.9°C 65% 8.0 mph WNW12.9 kmh WNW 14.0 mph22.5 kmh 30.10 in1019.3 mb 0.00 in0.0 mm 0.00 in0.0 mm 0.00 in0.0 mm
11:47 AM 51.8°F11.0°C 40.6°F4.8°C 66% 5.0 mph W8.0 kmh W 11.0 mph17.7 kmh 30.10 in1019.3 mb 0.00 in0.0 mm 0.00 in0.0 mm 0.00 in0.0 mm
11:52 AM 51.3°F10.7°C 40.1°F4.5°C 66% 3.0 mph W4.8 kmh W 14.0 mph22.5 kmh 30.10 in1019.3 mb 0.00 in0.0 mm 0.00 in0.0 mm 0.00 in0.0 mm
11:57 AM 51.3°F10.7°C 40.5°F4.7°C 67% 1.0 mph W1.6 kmh W 14.0 mph22.5 kmh 30.10 in1019.3 mb 0.00 in0.0 mm 0.00 in0.0 mm 0.00 in0.0 mm
12:02 PM 52.0°F11.1°C 40.8°F4.9°C 66% 4.0 mph W6.4 kmh W 14.0 mph22.5 kmh 30.10 in1019.3 mb 0.00 in0.0 mm 0.00 in0.0 mm 0.00 in0.0 mm
12:07 PM 52.0°F11.1°C 40.8°F4.9°C 66% 7.0 mph W11.3 kmh W 14.0 mph22.5 kmh 30.11 in1019.6 mb 0.00 in0.0 mm 0.00 in0.0 mm 0.00 in0.0 mm
12:12 PM 51.5°F10.8°C 39.9°F4.4°C 65% 7.0 mph W11.3 kmh W 14.0 mph22.5 kmh 30.11 in1019.6 mb 0.00 in0.0 mm 0.00 in0.0 mm 0.00 in0.0 mm
12:17 PM 51.2°F10.7°C 40.0°F4.4°C 66% 5.0 mph W8.0 kmh W 16.0 mph25.7 kmh 30.11 in1019.6 mb 0.00 in0.0 mm 0.00 in0.0 mm 0.00 in0.0 mm
12:22 PM 52.3°F11.3°C 40.7°F4.8°C 65% 7.0 mph NW11.3 kmh NW 16.0 mph25.7 kmh 30.11 in1019.6 mb 0.00 in0.0 mm 0.00 in0.0 mm 0.00 in0.0 mm
12:27 PM 52.8°F11.6°C 41.5°F5.3°C 66% 3.0 mph W4.8 kmh W 16.0 mph25.7 kmh 30.11 in1019.6 mb 0.00 in0.0 mm 0.00 in0.0 mm 0.00 in0.0 mm
12:32 PM 55.0°F12.8°C 42.4°F5.8°C 63% 4.0 mph WNW6.4 kmh WNW 16.0 mph25.7 kmh 30.11 in1019.6 mb 0.00 in0.0 mm 0.00 in0.0 mm 0.00 in0.0 mm
12:37 PM 54.4°F12.4°C 40.9°F4.9°C 61% 3.0 mph W4.8 kmh W 16.0 mph25.7 kmh 30.11 in1019.6 mb 0.00 in0.0 mm 0.00 in0.0 mm 0.00 in0.0 mm
12:42 PM 54.2°F12.3°C 41.6°F5.3°C 63% 7.0 mph WSW11.3 kmh WSW 19.0 mph30.6 kmh 30.11 in1019.6 mb 0.00 in0.0 mm 0.00 in0.0 mm 0.00 in0.0 mm
12:47 PM 54.9°F12.7°C 41.4°F5.2°C 61% 7.0 mph W11.3 kmh W 19.0 mph30.6 kmh 30.11 in1019.6 mb 0.00 in0.0 mm 0.00 in0.0 mm 0.00 in0.0 mm
12:52 PM 54.6°F12.6°C 41.6°F5.3°C 62% 5.0 mph W8.0 kmh W 19.0 mph30.6 kmh 30.12 in1020.0 mb 0.00 in0.0 mm 0.00 in0.0 mm 0.00 in0.0 mm
12:57 PM 53.6°F12.0°C 40.6°F4.8°C 62% 6.0 mph WNW9.7 kmh WNW 19.0 mph30.6 kmh 30.12 in1020.0 mb 0.00 in0.0 mm 0.00 in0.0 mm 0.00 in0.0 mm
01:02 PM 52.9°F11.6°C 40.8°F4.9°C 64% 4.0 mph W6.4 kmh W 14.0 mph22.5 kmh 30.12 in1020.0 mb 0.00 in0.0 mm 0.00 in0.0 mm 0.00 in0.0 mm
01:07 PM 52.5°F11.4°C 39.6°F4.2°C 62% 5.0 mph W8.0 kmh W 14.0 mph22.5 kmh 30.11 in1019.6 mb 0.00 in0.0 mm 0.00 in0.0 mm 0.00 in0.0 mm
01:12 PM 52.1°F11.2°C 40.0°F4.4°C 64% 4.0 mph W6.4 kmh W 14.0 mph22.5 kmh 30.12 in1020.0 mb 0.00 in0.0 mm 0.00 in0.0 mm 0.00 in0.0 mm
01:17 PM 52.3°F11.3°C 40.2°F4.6°C 64% 10.0 mph WSW16.1 kmh WSW 18.0 mph29.0 kmh 30.12 in1020.0 mb 0.00 in0.0 mm 0.00 in0.0 mm 0.00 in0.0 mm
01:22 PM 52.2°F11.2°C 39.7°F4.3°C 63% 8.0 mph WNW12.9 kmh WNW 18.0 mph29.0 kmh 30.12 in1020.0 mb 0.00 in0.0 mm 0.00 in0.0 mm 0.00 in0.0 mm
01:27 PM 52.1°F11.2°C 39.6°F4.2°C 63% 4.0 mph WSW6.4 kmh WSW 18.0 mph29.0 kmh 30.12 in1020.0 mb 0.00 in0.0 mm 0.00 in0.0 mm 0.00 in0.0 mm
01:32 PM 52.0°F11.1°C 39.5°F4.2°C 63% 8.0 mph WSW12.9 kmh WSW 18.0 mph29.0 kmh 30.13 in1020.3 mb 0.00 in0.0 mm 0.00 in0.0 mm 0.00 in0.0 mm
01:37 PM 51.7°F10.9°C 40.1°F4.5°C 65% 6.0 mph W9.7 kmh W 15.0 mph24.1 kmh 30.13 in1020.3 mb 0.00 in0.0 mm 0.00 in0.0 mm 0.00 in0.0 mm
01:42 PM 51.5°F10.8°C 39.5°F4.2°C 64% 7.0 mph W11.3 kmh W 16.0 mph25.7 kmh 30.13 in1020.3 mb 0.00 in0.0 mm 0.00 in0.0 mm 0.00 in0.0 mm
01:47 PM 51.3°F10.7°C 38.9°F3.8°C 63% 7.0 mph WSW11.3 kmh WSW 16.0 mph25.7 kmh 30.13 in1020.3 mb 0.00 in0.0 mm 0.00 in0.0 mm 0.00 in0.0 mm
01:52 PM 51.4°F10.8°C 39.0°F3.9°C 63% 7.0 mph W11.3 kmh W 17.0 mph27.4 kmh 30.13 in1020.3 mb 0.00 in0.0 mm 0.00 in0.0 mm 0.00 in0.0 mm
01:57 PM 51.5°F10.8°C 39.1°F3.9°C 63% 7.0 mph W11.3 kmh W 17.0 mph27.4 kmh 30.13 in1020.3 mb 0.00 in0.0 mm 0.00 in0.0 mm 0.00 in0.0 mm
02:02 PM 51.5°F10.8°C 39.1°F3.9°C 63% 4.0 mph WNW6.4 kmh WNW 17.0 mph27.4 kmh 30.13 in1020.3 mb 0.00 in0.0 mm 0.00 in0.0 mm 0.00 in0.0 mm
02:07 PM 51.5°F10.8°C 39.5°F4.2°C 64% 4.0 mph WNW6.4 kmh WNW 17.0 mph27.4 kmh 30.13 in1020.3 mb 0.00 in0.0 mm 0.00 in0.0 mm 0.00 in0.0 mm
02:12 PM 51.5°F10.8°C 39.1°F3.9°C 63% 2.0 mph NW3.2 kmh NW 16.0 mph25.7 kmh 30.12 in1020.0 mb 0.00 in0.0 mm 0.00 in0.0 mm 0.00 in0.0 mm
02:17 PM 51.4°F10.8°C 39.4°F4.1°C 64% 3.0 mph NW4.8 kmh NW 16.0 mph25.7 kmh 30.12 in1020.0 mb 0.00 in0.0 mm 0.00 in0.0 mm 0.00 in0.0 mm
02:22 PM 52.6°F11.4°C 40.5°F4.7°C 64% 2.0 mph NW3.2 kmh NW 13.0 mph20.9 kmh 30.12 in1020.0 mb 0.00 in0.0 mm 0.00 in0.0 mm 0.00 in0.0 mm
02:32 PM 52.7°F11.5°C 40.2°F4.6°C 63% 2.0 mph NW3.2 kmh NW 8.0 mph12.9 kmh 30.13 in1020.3 mb 0.00 in0.0 mm 0.00 in0.0 mm 0.00 in0.0 mm
02:37 PM 52.2°F11.2°C 38.9°F3.8°C 61% 6.0 mph WNW9.7 kmh WNW 10.0 mph16.1 kmh 30.13 in1020.3 mb 0.00 in0.0 mm 0.00 in0.0 mm 0.00 in0.0 mm
02:42 PM 52.0°F11.1°C 40.0°F4.4°C 64% 2.0 mph W3.2 kmh W 10.0 mph16.1 kmh 30.13 in1020.3 mb 0.00 in0.0 mm 0.00 in0.0 mm 0.00 in0.0 mm
02:47 PM 51.8°F11.0°C 39.8°F4.3°C 64% 5.0 mph NNW8.0 kmh NNW 10.0 mph16.1 kmh 30.13 in1020.3 mb 0.00 in0.0 mm 0.00 in0.0 mm 0.00 in0.0 mm
02:52 PM 51.3°F10.7°C 39.7°F4.3°C 65% 5.0 mph WNW8.0 kmh WNW 10.0 mph16.1 kmh 30.13 in1020.3 mb 0.00 in0.0 mm 0.00 in0.0 mm 0.00 in0.0 mm
02:57 PM 50.9°F10.5°C 39.3°F4.1°C 65% 3.0 mph W4.8 kmh W 10.0 mph16.1 kmh 30.13 in1020.3 mb 0.00 in0.0 mm 0.00 in0.0 mm 0.00 in0.0 mm
03:02 PM 50.8°F10.4°C 39.2°F4.0°C 65% 3.0 mph NW4.8 kmh NW 10.0 mph16.1 kmh 30.13 in1020.3 mb 0.00 in0.0 mm 0.00 in0.0 mm 0.00 in0.0 mm
03:07 PM 50.6°F10.3°C 39.0°F3.9°C 65% 5.0 mph NW8.0 kmh NW 12.0 mph19.3 kmh 30.14 in1020.7 mb 0.00 in0.0 mm 0.00 in0.0 mm 0.00 in0.0 mm
03:12 PM 50.4°F10.2°C 38.9°F3.8°C 65% 4.0 mph W6.4 kmh W 12.0 mph19.3 kmh 30.14 in1020.7 mb 0.00 in0.0 mm 0.00 in0.0 mm 0.00 in0.0 mm
03:17 PM 50.3°F10.2°C 38.3°F3.5°C 64% 5.0 mph WNW8.0 kmh WNW 12.0 mph19.3 kmh 30.14 in1020.7 mb 0.00 in0.0 mm 0.00 in0.0 mm 0.00 in0.0 mm
03:22 PM 50.1°F10.1°C 38.2°F3.4°C 64% 2.0 mph NNW3.2 kmh NNW 12.0 mph19.3 kmh 30.14 in1020.7 mb 0.00 in0.0 mm 0.00 in0.0 mm 0.00 in0.0 mm
03:27 PM 50.0°F10.0°C 37.7°F3.2°C 63% 3.0 mph WNW4.8 kmh WNW 11.0 mph17.7 kmh 30.15 in1021.0 mb 0.00 in0.0 mm 0.00 in0.0 mm 0.00 in0.0 mm
03:32 PM 49.9°F9.9°C 37.6°F3.1°C 63% 3.0 mph W4.8 kmh W 12.0 mph19.3 kmh 30.15 in1021.0 mb 0.00 in0.0 mm 0.00 in0.0 mm 0.00 in0.0 mm
03:37 PM 49.7°F9.8°C 37.4°F3.0°C 63% 4.0 mph W6.4 kmh W 12.0 mph19.3 kmh 30.15 in1021.0 mb 0.00 in0.0 mm 0.00 in0.0 mm 0.00 in0.0 mm
03:42 PM 49.6°F9.8°C 37.7°F3.2°C 64% 4.0 mph WNW6.4 kmh WNW 12.0 mph19.3 kmh 30.16 in1021.3 mb 0.00 in0.0 mm 0.00 in0.0 mm 0.00 in0.0 mm
03:47 PM 49.5°F9.7°C 37.2°F2.9°C 63% 3.0 mph NW4.8 kmh NW 12.0 mph19.3 kmh 30.16 in1021.3 mb 0.00 in0.0 mm 0.00 in0.0 mm 0.00 in0.0 mm
03:52 PM 49.3°F9.6°C 37.0°F2.8°C 63% 7.0 mph W11.3 kmh W 12.0 mph19.3 kmh 30.16 in1021.3 mb 0.00 in0.0 mm 0.00 in0.0 mm 0.00 in0.0 mm
03:57 PM 49.1°F9.5°C 36.8°F2.7°C 63% 14.0 mph WNW22.5 kmh WNW 16.0 mph25.7 kmh 30.17 in1021.7 mb 0.00 in0.0 mm 0.00 in0.0 mm 0.00 in0.0 mm
04:02 PM 49.0°F9.4°C 36.3°F2.4°C 62% 8.0 mph NW12.9 kmh NW 16.0 mph25.7 kmh 30.17 in1021.7 mb 0.00 in0.0 mm 0.00 in0.0 mm 0.00 in0.0 mm
04:07 PM 48.8°F9.3°C 36.5°F2.5°C 63% 5.0 mph WNW8.0 kmh WNW 16.0 mph25.7 kmh 30.17 in1021.7 mb 0.00 in0.0 mm 0.00 in0.0 mm 0.00 in0.0 mm
04:12 PM 48.8°F9.3°C 36.5°F2.5°C 63% 2.0 mph WNW3.2 kmh WNW 16.0 mph25.7 kmh 30.17 in1021.7 mb 0.00 in0.0 mm 0.00 in0.0 mm 0.00 in0.0 mm
04:17 PM 48.8°F9.3°C 36.1°F2.3°C 62% 3.0 mph NW4.8 kmh NW 14.0 mph22.5 kmh 30.17 in1021.7 mb 0.00 in0.0 mm 0.00 in0.0 mm 0.00 in0.0 mm
04:22 PM 48.9°F9.4°C 36.2°F2.3°C 62% 4.0 mph NNW6.4 kmh NNW 14.0 mph22.5 kmh 30.18 in1022.0 mb 0.00 in0.0 mm 0.00 in0.0 mm 0.00 in0.0 mm
04:27 PM 49.0°F9.4°C 35.9°F2.2°C 61% 5.0 mph W8.0 kmh W 17.0 mph27.4 kmh 30.18 in1022.0 mb 0.00 in0.0 mm 0.00 in0.0 mm 0.00 in0.0 mm
04:32 PM 49.1°F9.5°C 36.0°F2.2°C 61% 6.0 mph W9.7 kmh W 17.0 mph27.4 kmh 30.18 in1022.0 mb 0.00 in0.0 mm 0.00 in0.0 mm 0.00 in0.0 mm
04:37 PM 49.3°F9.6°C 36.1°F2.3°C 61% 7.0 mph W11.3 kmh W 17.0 mph27.4 kmh 30.18 in1022.0 mb 0.00 in0.0 mm 0.00 in0.0 mm 0.00 in0.0 mm
04:42 PM 49.6°F9.8°C 36.4°F2.4°C 61% 8.0 mph W12.9 kmh W 17.0 mph27.4 kmh 30.18 in1022.0 mb 0.00 in0.0 mm 0.00 in0.0 mm 0.00 in0.0 mm
04:47 PM 49.8°F9.9°C 36.2°F2.3°C 60% 5.0 mph W8.0 kmh W 17.0 mph27.4 kmh 30.18 in1022.0 mb 0.00 in0.0 mm 0.00 in0.0 mm 0.00 in0.0 mm
04:52 PM 49.9°F9.9°C 36.3°F2.4°C 60% 5.0 mph NW8.0 kmh NW 17.0 mph27.4 kmh 30.18 in1022.0 mb 0.00 in0.0 mm 0.00 in0.0 mm 0.00 in0.0 mm
04:57 PM 49.9°F9.9°C 35.4°F1.9°C 58% 3.0 mph WSW4.8 kmh WSW 17.0 mph27.4 kmh 30.18 in1022.0 mb 0.00 in0.0 mm 0.00 in0.0 mm 0.00 in0.0 mm
05:02 PM 49.8°F9.9°C 35.3°F1.8°C 58% 5.0 mph W8.0 kmh W 19.0 mph30.6 kmh 30.18 in1022.0 mb 0.00 in0.0 mm 0.00 in0.0 mm 0.00 in0.0 mm
05:07 PM 49.7°F9.8°C 35.7°F2.1°C 59% 3.0 mph NW4.8 kmh NW 19.0 mph30.6 kmh 30.19 in1022.4 mb 0.00 in0.0 mm 0.00 in0.0 mm 0.00 in0.0 mm
05:12 PM 49.6°F9.8°C 36.0°F2.2°C 60% 11.0 mph W17.7 kmh W 19.0 mph30.6 kmh 30.19 in1022.4 mb 0.00 in0.0 mm 0.00 in0.0 mm 0.00 in0.0 mm
05:17 PM 49.4°F9.7°C 35.8°F2.1°C 60% 3.0 mph NW4.8 kmh NW 19.0 mph30.6 kmh 30.19 in1022.4 mb 0.00 in0.0 mm 0.00 in0.0 mm 0.00 in0.0 mm
05:22 PM 49.2°F9.6°C 35.6°F2.0°C 60% 5.0 mph WNW8.0 kmh WNW 11.0 mph17.7 kmh 30.19 in1022.4 mb 0.00 in0.0 mm 0.00 in0.0 mm 0.00 in0.0 mm
05:27 PM 49.1°F9.5°C 35.5°F1.9°C 60% 4.0 mph WNW6.4 kmh WNW 11.0 mph17.7 kmh 30.19 in1022.4 mb 0.00 in0.0 mm 0.00 in0.0 mm 0.00 in0.0 mm
05:32 PM 49.0°F9.4°C 35.9°F2.2°C 61% 1.0 mph NW1.6 kmh NW 9.0 mph14.5 kmh 30.19 in1022.4 mb 0.00 in0.0 mm 0.00 in0.0 mm 0.00 in0.0 mm
05:37 PM 48.9°F9.4°C 35.3°F1.8°C 60% 7.0 mph NW11.3 kmh NW 9.0 mph14.5 kmh 30.20 in1022.7 mb 0.00 in0.0 mm 0.00 in0.0 mm 0.00 in0.0 mm
05:42 PM 48.8°F9.3°C 35.7°F2.1°C 61% 4.0 mph W6.4 kmh W 8.0 mph12.9 kmh 30.20 in1022.7 mb 0.00 in0.0 mm 0.00 in0.0 mm 0.00 in0.0 mm
05:47 PM 48.7°F9.3°C 35.2°F1.8°C 60% 6.0 mph WSW9.7 kmh WSW 8.0 mph12.9 kmh 30.20 in1022.7 mb 0.00 in0.0 mm 0.00 in0.0 mm 0.00 in0.0 mm
05:52 PM 48.6°F9.2°C 35.1°F1.7°C 60% 8.0 mph NNW12.9 kmh NNW 8.0 mph12.9 kmh 30.20 in1022.7 mb 0.00 in0.0 mm 0.00 in0.0 mm 0.00 in0.0 mm
05:57 PM 48.5°F9.2°C 35.0°F1.7°C 60% 3.0 mph W4.8 kmh W 8.0 mph12.9 kmh 30.20 in1022.7 mb 0.00 in0.0 mm 0.00 in0.0 mm 0.00 in0.0 mm
06:02 PM 48.4°F9.1°C 35.3°F1.8°C 61% 1.0 mph NW1.6 kmh NW 11.0 mph17.7 kmh 30.21 in1023.0 mb 0.00 in0.0 mm 0.00 in0.0 mm 0.00 in0.0 mm
06:07 PM 48.4°F9.1°C 35.3°F1.8°C 61% 6.0 mph W9.7 kmh W 11.0 mph17.7 kmh 30.21 in1023.0 mb 0.00 in0.0 mm 0.00 in0.0 mm 0.00 in0.0 mm
06:12 PM 48.3°F9.1°C 35.2°F1.8°C 61% 4.0 mph NW6.4 kmh NW 11.0 mph17.7 kmh 30.21 in1023.0 mb 0.00 in0.0 mm 0.00 in0.0 mm 0.00 in0.0 mm
06:17 PM 48.2°F9.0°C 34.7°F1.5°C 60% 2.0 mph NW3.2 kmh NW 11.0 mph17.7 kmh 30.21 in1023.0 mb 0.00 in0.0 mm 0.00 in0.0 mm 0.00 in0.0 mm
06:22 PM 48.1°F8.9°C 34.6°F1.4°C 60% 2.0 mph W3.2 kmh W 9.0 mph14.5 kmh 30.22 in1023.4 mb 0.00 in0.0 mm 0.00 in0.0 mm 0.00 in0.0 mm
06:27 PM 48.1°F8.9°C 34.6°F1.4°C 60% 6.0 mph WNW9.7 kmh WNW 9.0 mph14.5 kmh 30.22 in1023.4 mb 0.00 in0.0 mm 0.00 in0.0 mm 0.00 in0.0 mm
06:32 PM 47.9°F8.8°C 34.4°F1.3°C 60% 6.0 mph WNW9.7 kmh WNW 9.0 mph14.5 kmh 30.22 in1023.4 mb 0.00 in0.0 mm 0.00 in0.0 mm 0.00 in0.0 mm
06:37 PM 47.9°F8.8°C 34.4°F1.3°C 60% 4.0 mph W6.4 kmh W 9.0 mph14.5 kmh 30.22 in1023.4 mb 0.00 in0.0 mm 0.00 in0.0 mm 0.00 in0.0 mm
06:42 PM 47.9°F8.8°C 34.4°F1.3°C 60% 4.0 mph WNW6.4 kmh WNW 10.0 mph16.1 kmh 30.23 in1023.7 mb 0.00 in0.0 mm 0.00 in0.0 mm 0.00 in0.0 mm
06:47 PM 47.8°F8.8°C 34.3°F1.3°C 60% 4.0 mph WNW6.4 kmh WNW 10.0 mph16.1 kmh 30.23 in1023.7 mb 0.00 in0.0 mm 0.00 in0.0 mm 0.00 in0.0 mm
06:52 PM 47.8°F8.8°C 34.3°F1.3°C 60% 8.0 mph W12.9 kmh W 11.0 mph17.7 kmh 30.23 in1023.7 mb 0.00 in0.0 mm 0.00 in0.0 mm 0.00 in0.0 mm
06:57 PM 47.9°F8.8°C 33.5°F0.8°C 58% 3.0 mph NW4.8 kmh NW 12.0 mph19.3 kmh 30.23 in1023.7 mb 0.00 in0.0 mm 0.00 in0.0 mm 0.00 in0.0 mm
07:02 PM 47.9°F8.8°C 34.0°F1.1°C 59% 3.0 mph WSW4.8 kmh WSW 12.0 mph19.3 kmh 30.24 in1024.0 mb 0.00 in0.0 mm 0.00 in0.0 mm 0.00 in0.0 mm
07:07 PM 47.9°F8.8°C 34.0°F1.1°C 59% 1.0 mph N1.6 kmh N 12.0 mph19.3 kmh 30.25 in1024.4 mb 0.00 in0.0 mm 0.00 in0.0 mm 0.00 in0.0 mm
07:12 PM 47.9°F8.8°C 34.0°F1.1°C 59% 13.0 mph SW20.9 kmh SW 13.0 mph20.9 kmh 30.25 in1024.4 mb 0.00 in0.0 mm 0.00 in0.0 mm 0.00 in0.0 mm
07:17 PM 47.8°F8.8°C 33.9°F1.1°C 59% 1.0 mph NW1.6 kmh NW 13.0 mph20.9 kmh 30.25 in1024.4 mb 0.00 in0.0 mm 0.00 in0.0 mm 0.00 in0.0 mm
07:22 PM 47.7°F8.7°C 33.8°F1.0°C 59% 1.0 mph NW1.6 kmh NW 13.0 mph20.9 kmh 30.25 in1024.4 mb 0.00 in0.0 mm 0.00 in0.0 mm 0.00 in0.0 mm
07:27 PM 47.7°F8.7°C 33.8°F1.0°C 59% 7.0 mph NW11.3 kmh NW 13.0 mph20.9 kmh 30.25 in1024.4 mb 0.00 in0.0 mm 0.00 in0.0 mm 0.00 in0.0 mm
07:32 PM 47.6°F8.7°C 33.7°F0.9°C 59% 3.0 mph WNW4.8 kmh WNW 13.0 mph20.9 kmh 30.26 in1024.7 mb 0.00 in0.0 mm 0.00 in0.0 mm 0.00 in0.0 mm
07:37 PM 47.6°F8.7°C 33.2°F0.7°C 58% 3.0 mph NW4.8 kmh NW 12.0 mph19.3 kmh 30.26 in1024.7 mb 0.00 in0.0 mm 0.00 in0.0 mm 0.00 in0.0 mm
07:42 PM 47.5°F8.6°C 33.2°F0.7°C 58% 5.0 mph NW8.0 kmh NW 12.0 mph19.3 kmh 30.26 in1024.7 mb 0.00 in0.0 mm 0.00 in0.0 mm 0.00 in0.0 mm
07:47 PM 47.5°F8.6°C 33.2°F0.7°C 58% 4.0 mph WNW6.4 kmh WNW 13.0 mph20.9 kmh 30.26 in1024.7 mb 0.00 in0.0 mm 0.00 in0.0 mm 0.00 in0.0 mm
07:52 PM 47.5°F8.6°C 33.2°F0.7°C 58% 6.0 mph WNW9.7 kmh WNW 13.0 mph20.9 kmh 30.26 in1024.7 mb 0.00 in0.0 mm 0.00 in0.0 mm 0.00 in0.0 mm
07:57 PM 47.4°F8.6°C 33.1°F0.6°C 58% 9.0 mph W14.5 kmh W 13.0 mph20.9 kmh 30.27 in1025.1 mb 0.00 in0.0 mm 0.00 in0.0 mm 0.00 in0.0 mm
08:02 PM 47.5°F8.6°C 33.2°F0.7°C 58% 6.0 mph W9.7 kmh W 13.0 mph20.9 kmh 30.27 in1025.1 mb 0.00 in0.0 mm 0.00 in0.0 mm 0.00 in0.0 mm
08:07 PM 47.5°F8.6°C 33.2°F0.7°C 58% 4.0 mph NW6.4 kmh NW 13.0 mph20.9 kmh 30.27 in1025.1 mb 0.00 in0.0 mm 0.00 in0.0 mm 0.00 in0.0 mm
08:12 PM 47.5°F8.6°C 33.2°F0.7°C 58% 9.0 mph WNW14.5 kmh WNW 16.0 mph25.7 kmh 30.28 in1025.4 mb 0.00 in0.0 mm 0.00 in0.0 mm 0.00 in0.0 mm
08:17 PM 47.4°F8.6°C 33.1°F0.6°C 58% 2.0 mph WNW3.2 kmh WNW 16.0 mph25.7 kmh 30.28 in1025.4 mb 0.00 in0.0 mm 0.00 in0.0 mm 0.00 in0.0 mm
08:22 PM 47.3°F8.5°C 33.0°F0.6°C 58% 4.0 mph NW6.4 kmh NW 16.0 mph25.7 kmh 30.28 in1025.4 mb 0.00 in0.0 mm 0.00 in0.0 mm 0.00 in0.0 mm
08:27 PM 47.2°F8.4°C 32.4°F0.2°C 57% 2.0 mph W3.2 kmh W 16.0 mph25.7 kmh 30.29 in1025.7 mb 0.00 in0.0 mm 0.00 in0.0 mm 0.00 in0.0 mm
08:32 PM 47.0°F8.3°C 32.2°F0.1°C 57% 1.0 mph NW1.6 kmh NW 7.0 mph11.3 kmh 30.29 in1025.7 mb 0.00 in0.0 mm 0.00 in0.0 mm 0.00 in0.0 mm
08:37 PM 47.0°F8.3°C 32.2°F0.1°C 57% 4.0 mph WNW6.4 kmh WNW 15.0 mph24.1 kmh 30.29 in1025.7 mb 0.00 in0.0 mm 0.00 in0.0 mm 0.00 in0.0 mm
08:42 PM 47.0°F8.3°C 31.8°F-0.1°C 56% 5.0 mph W8.0 kmh W 15.0 mph24.1 kmh 30.29 in1025.7 mb 0.00 in0.0 mm 0.00 in0.0 mm 0.00 in0.0 mm
08:47 PM 46.9°F8.3°C 31.2°F-0.4°C 55% 3.0 mph NW4.8 kmh NW 15.0 mph24.1 kmh 30.29 in1025.7 mb 0.00 in0.0 mm 0.00 in0.0 mm 0.00 in0.0 mm
08:52 PM 46.8°F8.2°C 30.7°F-0.7°C 54% 3.0 mph NW4.8 kmh NW 15.0 mph24.1 kmh 30.29 in1025.7 mb 0.00 in0.0 mm 0.00 in0.0 mm 0.00 in0.0 mm
08:57 PM 46.8°F8.2°C 31.1°F-0.5°C 55% 3.0 mph WNW4.8 kmh WNW 11.0 mph17.7 kmh 30.30 in1026.1 mb 0.00 in0.0 mm 0.00 in0.0 mm 0.00 in0.0 mm
09:02 PM 46.7°F8.2°C 31.0°F-0.6°C 55% 1.0 mph NW1.6 kmh NW 11.0 mph17.7 kmh 30.30 in1026.1 mb 0.00 in0.0 mm 0.00 in0.0 mm 0.00 in0.0 mm
09:07 PM 46.7°F8.2°C 31.0°F-0.6°C 55% 3.0 mph W4.8 kmh W 8.0 mph12.9 kmh 30.30 in1026.1 mb 0.00 in0.0 mm 0.00 in0.0 mm 0.00 in0.0 mm
09:12 PM 46.6°F8.1°C 31.0°F-0.6°C 55% 3.0 mph W4.8 kmh W 10.0 mph16.1 kmh 30.31 in1026.4 mb 0.00 in0.0 mm 0.00 in0.0 mm 0.00 in0.0 mm
09:17 PM 46.6°F8.1°C 31.0°F-0.6°C 55% 4.0 mph WNW6.4 kmh WNW 10.0 mph16.1 kmh 30.31 in1026.4 mb 0.00 in0.0 mm 0.00 in0.0 mm 0.00 in0.0 mm
09:22 PM 46.5°F8.1°C 30.9°F-0.6°C 55% 1.0 mph WNW1.6 kmh WNW 12.0 mph19.3 kmh 30.31 in1026.4 mb 0.00 in0.0 mm 0.00 in0.0 mm 0.00 in0.0 mm
09:27 PM 46.5°F8.1°C 31.3°F-0.4°C 56% 2.0 mph NW3.2 kmh NW 12.0 mph19.3 kmh 30.32 in1026.8 mb 0.00 in0.0 mm 0.00 in0.0 mm 0.00 in0.0 mm
09:32 PM 46.4°F8.0°C 30.8°F-0.7°C 55% 4.0 mph WNW6.4 kmh WNW 12.0 mph19.3 kmh 30.32 in1026.8 mb 0.00 in0.0 mm 0.00 in0.0 mm 0.00 in0.0 mm
09:37 PM 46.4°F8.0°C 31.2°F-0.4°C 56% 1.0 mph NW1.6 kmh NW 12.0 mph19.3 kmh 30.32 in1026.8 mb 0.00 in0.0 mm 0.00 in0.0 mm 0.00 in0.0 mm
09:42 PM 46.4°F8.0°C 31.2°F-0.4°C 56% 4.0 mph NNW6.4 kmh NNW 7.0 mph11.3 kmh 30.33 in1027.1 mb 0.00 in0.0 mm 0.00 in0.0 mm 0.00 in0.0 mm
09:47 PM 46.3°F7.9°C 31.1°F-0.5°C 56% 1.0 mph WNW1.6 kmh WNW 8.0 mph12.9 kmh 30.33 in1027.1 mb 0.00 in0.0 mm 0.00 in0.0 mm 0.00 in0.0 mm
09:52 PM 46.3°F7.9°C 31.1°F-0.5°C 56% 2.0 mph WNW3.2 kmh WNW 8.0 mph12.9 kmh 30.33 in1027.1 mb 0.00 in0.0 mm 0.00 in0.0 mm 0.00 in0.0 mm
09:57 PM 46.2°F7.9°C 31.0°F-0.6°C 56% 4.0 mph NW6.4 kmh NW 10.0 mph16.1 kmh 30.33 in1027.1 mb 0.00 in0.0 mm 0.00 in0.0 mm 0.00 in0.0 mm
10:02 PM 46.1°F7.8°C 30.5°F-0.8°C 55% 5.0 mph WNW8.0 kmh WNW 10.0 mph16.1 kmh 30.34 in1027.4 mb 0.00 in0.0 mm 0.00 in0.0 mm 0.00 in0.0 mm
10:07 PM 46.1°F7.8°C 30.5°F-0.8°C 55% 3.0 mph WNW4.8 kmh WNW 10.0 mph16.1 kmh 30.34 in1027.4 mb 0.00 in0.0 mm 0.00 in0.0 mm 0.00 in0.0 mm
10:12 PM 46.1°F7.8°C 30.9°F-0.6°C 56% 4.0 mph N6.4 kmh N 10.0 mph16.1 kmh 30.34 in1027.4 mb 0.00 in0.0 mm 0.00 in0.0 mm 0.00 in0.0 mm
10:17 PM 46.0°F7.8°C 30.9°F-0.6°C 56% 6.0 mph WNW9.7 kmh WNW 10.0 mph16.1 kmh 30.34 in1027.4 mb 0.00 in0.0 mm 0.00 in0.0 mm 0.00 in0.0 mm
10:22 PM 46.0°F7.8°C 30.9°F-0.6°C 56% 5.0 mph W8.0 kmh W 10.0 mph16.1 kmh 30.34 in1027.4 mb 0.00 in0.0 mm 0.00 in0.0 mm 0.00 in0.0 mm
10:27 PM 45.9°F7.7°C 30.3°F-0.9°C 55% 1.0 mph NW1.6 kmh NW 10.0 mph16.1 kmh 30.35 in1027.8 mb 0.00 in0.0 mm 0.00 in0.0 mm 0.00 in0.0 mm
10:32 PM 45.9°F7.7°C 30.3°F-0.9°C 55% 4.0 mph WNW6.4 kmh WNW 11.0 mph17.7 kmh 30.35 in1027.8 mb 0.00 in0.0 mm 0.00 in0.0 mm 0.00 in0.0 mm
10:37 PM 45.8°F7.7°C 29.7°F-1.3°C 54% 4.0 mph WNW6.4 kmh WNW 13.0 mph20.9 kmh 30.35 in1027.8 mb 0.00 in0.0 mm 0.00 in0.0 mm 0.00 in0.0 mm
10:42 PM 45.8°F7.7°C 29.7°F-1.3°C 54% 3.0 mph NW4.8 kmh NW 13.0 mph20.9 kmh 30.36 in1028.1 mb 0.00 in0.0 mm 0.00 in0.0 mm 0.00 in0.0 mm
10:47 PM 45.7°F7.6°C 29.2°F-1.6°C 53% 3.0 mph NW4.8 kmh NW 13.0 mph20.9 kmh 30.36 in1028.1 mb 0.00 in0.0 mm 0.00 in0.0 mm 0.00 in0.0 mm
10:52 PM 45.7°F7.6°C 29.2°F-1.6°C 53% 3.0 mph WNW4.8 kmh WNW 13.0 mph20.9 kmh 30.36 in1028.1 mb 0.00 in0.0 mm 0.00 in0.0 mm 0.00 in0.0 mm
10:57 PM 45.5°F7.5°C 29.0°F-1.7°C 53% 6.0 mph WSW9.7 kmh WSW 9.0 mph14.5 kmh 30.36 in1028.1 mb 0.00 in0.0 mm 0.00 in0.0 mm 0.00 in0.0 mm
11:02 PM 45.4°F7.4°C 28.4°F-2.0°C 52% 5.0 mph NW8.0 kmh NW 9.0 mph14.5 kmh 30.36 in1028.1 mb 0.00 in0.0 mm 0.00 in0.0 mm 0.00 in0.0 mm
11:07 PM 45.4°F7.4°C 28.4°F-2.0°C 52% 7.0 mph WSW11.3 kmh WSW 9.0 mph14.5 kmh 30.37 in1028.4 mb 0.00 in0.0 mm 0.00 in0.0 mm 0.00 in0.0 mm
11:12 PM 45.2°F7.3°C 27.7°F-2.4°C 51% 2.0 mph NW3.2 kmh NW 9.0 mph14.5 kmh 30.37 in1028.4 mb 0.00 in0.0 mm 0.00 in0.0 mm 0.00 in0.0 mm
11:17 PM 45.1°F7.3°C 27.1°F-2.7°C 50% 6.0 mph WNW9.7 kmh WNW 12.0 mph19.3 kmh 30.37 in1028.4 mb 0.00 in0.0 mm 0.00 in0.0 mm 0.00 in0.0 mm
11:22 PM 44.9°F7.2°C 27.0°F-2.8°C 50% 4.0 mph NW6.4 kmh NW 12.0 mph19.3 kmh 30.37 in1028.4 mb 0.00 in0.0 mm 0.00 in0.0 mm 0.00 in0.0 mm
11:27 PM 44.7°F7.1°C 26.8°F-2.9°C 50% 2.0 mph NW3.2 kmh NW 14.0 mph22.5 kmh 30.38 in1028.8 mb 0.00 in0.0 mm 0.00 in0.0 mm 0.00 in0.0 mm
11:32 PM 44.6°F7.0°C 26.7°F-2.9°C 50% Calm Calm 14.0 mph22.5 kmh 30.38 in1028.8 mb 0.00 in0.0 mm 0.00 in0.0 mm 0.00 in0.0 mm
11:37 PM 44.5°F6.9°C 26.6°F-3.0°C 50% 2.0 mph NW3.2 kmh NW 14.0 mph22.5 kmh 30.38 in1028.8 mb 0.00 in0.0 mm 0.00 in0.0 mm 0.00 in0.0 mm
11:42 PM 44.4°F6.9°C 26.5°F-3.1°C 50% 6.0 mph NW9.7 kmh NW 14.0 mph22.5 kmh 30.38 in1028.8 mb 0.00 in0.0 mm 0.00 in0.0 mm 0.00 in0.0 mm
11:47 PM 44.3°F6.8°C 26.4°F-3.1°C 50% 2.0 mph NW3.2 kmh NW 12.0 mph19.3 kmh 30.39 in1029.1 mb 0.00 in0.0 mm 0.00 in0.0 mm 0.00 in0.0 mm
11:52 PM 44.3°F6.8°C 26.4°F-3.1°C 50% 1.0 mph W1.6 kmh W 12.0 mph19.3 kmh 30.39 in1029.1 mb 0.00 in0.0 mm 0.00 in0.0 mm 0.00 in0.0 mm
11:57 PM 44.3°F6.8°C 25.9°F-3.4°C 49% 5.0 mph WNW8.0 kmh WNW 12.0 mph19.3 kmh 30.39 in1029.1 mb 0.00 in0.0 mm 0.00 in0.0 mm 0.00 in0.0 mm